Montreal / Pierre Elliott Trudeau International Airport

CYUL · Quebec, 加拿大

罗盘
风向 的 风向 240° 蒙特利尔皮埃尔·埃利奥特·特鲁多国际机场 6R/24L
风: 6 kt, 2 beaufort

6 kt

改变
0 ft 1.000 2.000 3.000 4.000 5.000
Cloud Cloud Cloud Cloud Cloud Cloud Cloud Cloud
OVC 2.600
METAR CYMX 021128Z 24006KT 15SM OVC026 M07/M08 A3001 RMK SC8 SLP172

METAR 蒙特利尔皮埃尔·埃利奥特·特鲁多国际机场 - CYUL/YUL

蒙特利尔皮埃尔·埃利奥特·特鲁多国际机场是,加拿大中的大型机场。 该机场有3条跑道: 6R/24L, 6L/24R 和 10/28. 该领域的国际民航组织标志是CYUL 它的国际航空运输协会代码是YUL.

这份报告是针对2023年2月2日 06:28, 当地时间在Montreal International (Mirabel) Airport进行的。

机场观察

风向为240°,速度为6 kt。

可见度为15 mi。

有乌云密布在2.600 ft的高度。 破损或更高的上限为2.600 ft。

温度为-7 °C,阵风为-14 °C。 露点为-8 °C,相对湿度为93%。 海平面上的气压为30,01 inHg (QNH)。

白天

今天,太阳从07:14升起,在17:02降落。 这适用于蒙特利尔皮埃尔·埃利奥特·特鲁多国际机场,世界夏令时可能有所不同。 当地时间与世界标准时间之间的时差为-5 小时。 当前,没有夏令时有效。

公司介绍

我们没有关于这个机场的公司信息。

体会

到Vliegles.nl去找飞行课程,跳伞和其他飞行体验。 浏览页面,了解蒙特利尔皮埃尔·埃利奥特·特鲁多国际机场附近所有可用的活动。 你也可以使用搜索功能来寻找你所在地附近的特定飞行课程、跳伞或其他飞行体验。

跑道

Id 标题 侧风 逆风 侧风 %
6R/24L 057°-237° 6 kt 5 %
6L/24R 057°-237° 6 kt 5 %
10/28 087°-267° 3 kt 5 kt 45 %

逆风成分最大的方向会被突出显示,并用于横风计算。 这并不一定意味着这个方向在使用。

乌云

2.600 ft OVC 乌云密布

温度 & 天气

温度 -7 °C
露点 -8 °C
相对湿度 93%
风寒 -14 °C
Kp-index 1 (0-9)

评论

SLP172海平面压力为30,04 inHg (30,04 inHg)
SC8

白天

日出
07:16 (13m)
中午
12:09
日落
17:03

小工具

你想在你的网站上有一个关于蒙特利尔皮埃尔·埃利奥特·特鲁多国际机场的当前航空天气(METAR)的小部件吗?

显示HTML代码

我们和第三方通过cookies跟踪您在我们网站上的互联网行为。如果你继续,我们认为你同意我们的饼干政策